Terminal Aerodrome Forecast
Issued by NWS

Home | Current Version | Previous Version | Text Only | Print | Product List | Glossary On
Versions: 1 2 3 4 5 6 7 8 9 10 11 12 13 14 15 16 17 18 19 20 21
484
FTUS41 KBGM 252339
TAFRME
TAF
KRME 252339Z 2600/2624 10003KT P6SM OVC015
     FM260400 10005KT P6SM SCT035 BKN100
     FM261000 10008KT P6SM OVC035
     FM261500 10008KT P6SM OVC015=

USA.gov is the U.S. government's official web portal to all federal, state and local government web resources and services.